sensor_id;sensor_type;location;lat;lon;timestamp;P1;durP1;ratioP1;P2;durP2;ratioP2
18796;SDS011;9526;52.612;13.300;2023-02-08T00:01:56;125.33;;;56.83;;
18796;SDS011;9526;52.612;13.300;2023-02-08T00:04:20;125.03;;;55.33;;
18796;SDS011;9526;52.612;13.300;2023-02-08T00:06:44;123.20;;;56.57;;
18796;SDS011;9526;52.612;13.300;2023-02-08T00:09:07;127.17;;;57.57;;
18796;SDS011;9526;52.612;13.300;2023-02-08T00:11:31;122.40;;;55.77;;
18796;SDS011;9526;52.612;13.300;2023-02-08T00:13:55;128.20;;;56.33;;
18796;SDS011;9526;52.612;13.300;2023-02-08T00:16:19;135.70;;;59.23;;
18796;SDS011;9526;52.612;13.300;2023-02-08T00:18:44;130.13;;;58.70;;
18796;SDS011;9526;52.612;13.300;2023-02-08T00:21:10;126.80;;;58.07;;
18796;SDS011;9526;52.612;13.300;2023-02-08T00:23:35;121.67;;;56.80;;
18796;SDS011;9526;52.612;13.300;2023-02-08T00:25:59;130.07;;;57.33;;
18796;SDS011;9526;52.612;13.300;2023-02-08T00:28:23;135.57;;;57.73;;
18796;SDS011;9526;52.612;13.300;2023-02-08T00:30:47;117.00;;;56.67;;
18796;SDS011;9526;52.612;13.300;2023-02-08T00:33:11;131.17;;;57.97;;
18796;SDS011;9526;52.612;13.300;2023-02-08T00:35:36;124.97;;;57.90;;
18796;SDS011;9526;52.612;13.300;2023-02-08T00:38:01;127.40;;;58.00;;
18796;SDS011;9526;52.612;13.300;2023-02-08T00:40:25;124.50;;;57.47;;
18796;SDS011;9526;52.612;13.300;2023-02-08T00:42:50;126.33;;;56.60;;
18796;SDS011;9526;52.612;13.300;2023-02-08T00:45:14;124.37;;;56.40;;
18796;SDS011;9526;52.612;13.300;2023-02-08T00:47:38;133.67;;;58.47;;
18796;SDS011;9526;52.612;13.300;2023-02-08T00:50:02;125.13;;;56.40;;
18796;SDS011;9526;52.612;13.300;2023-02-08T00:52:30;129.33;;;55.83;;
18796;SDS011;9526;52.612;13.300;2023-02-08T00:54:54;133.90;;;57.20;;
18796;SDS011;9526;52.612;13.300;2023-02-08T00:57:18;123.37;;;56.30;;
18796;SDS011;9526;52.612;13.300;2023-02-08T00:59:42;123.80;;;57.00;;
18796;SDS011;9526;52.612;13.300;2023-02-08T01:02:05;121.13;;;55.37;;
18796;SDS011;9526;52.612;13.300;2023-02-08T01:04:30;122.07;;;54.43;;
18796;SDS011;9526;52.612;13.300;2023-02-08T01:06:54;126.13;;;56.40;;
18796;SDS011;9526;52.612;13.300;2023-02-08T01:09:19;126.37;;;57.03;;
18796;SDS011;9526;52.612;13.300;2023-02-08T01:11:43;128.20;;;57.13;;
18796;SDS011;9526;52.612;13.300;2023-02-08T01:14:06;131.23;;;56.53;;
18796;SDS011;9526;52.612;13.300;2023-02-08T01:16:31;115.87;;;53.83;;
18796;SDS011;9526;52.612;13.300;2023-02-08T01:18:56;128.03;;;56.70;;
18796;SDS011;9526;52.612;13.300;2023-02-08T01:21:21;125.87;;;56.07;;
18796;SDS011;9526;52.612;13.300;2023-02-08T01:23:47;134.90;;;57.17;;
18796;SDS011;9526;52.612;13.300;2023-02-08T01:26:14;126.97;;;55.77;;
18796;SDS011;9526;52.612;13.300;2023-02-08T01:28:39;125.13;;;54.60;;
18796;SDS011;9526;52.612;13.300;2023-02-08T01:31:05;126.40;;;57.23;;
18796;SDS011;9526;52.612;13.300;2023-02-08T01:33:29;126.33;;;55.20;;
18796;SDS011;9526;52.612;13.300;2023-02-08T01:35:53;124.43;;;54.97;;
18796;SDS011;9526;52.612;13.300;2023-02-08T01:38:17;132.57;;;56.73;;
18796;SDS011;9526;52.612;13.300;2023-02-08T01:40:41;119.13;;;52.97;;
18796;SDS011;9526;52.612;13.300;2023-02-08T01:43:08;124.20;;;55.20;;
18796;SDS011;9526;52.612;13.300;2023-02-08T01:45:43;125.07;;;52.80;;
18796;SDS011;9526;52.612;13.300;2023-02-08T01:48:07;115.57;;;52.50;;
18796;SDS011;9526;52.612;13.300;2023-02-08T01:50:38;123.53;;;52.53;;
18796;SDS011;9526;52.612;13.300;2023-02-08T01:53:06;111.00;;;49.77;;
18796;SDS011;9526;52.612;13.300;2023-02-08T01:55:31;108.90;;;48.60;;
18796;SDS011;9526;52.612;13.300;2023-02-08T01:58:01;110.50;;;48.33;;
18796;SDS011;9526;52.612;13.300;2023-02-08T02:00:30;116.20;;;48.30;;
18796;SDS011;9526;52.612;13.300;2023-02-08T02:02:55;114.20;;;48.53;;
18796;SDS011;9526;52.612;13.300;2023-02-08T02:05:20;107.40;;;48.73;;
18796;SDS011;9526;52.612;13.300;2023-02-08T02:07:47;107.43;;;50.30;;
18796;SDS011;9526;52.612;13.300;2023-02-08T02:10:14;109.20;;;47.10;;
18796;SDS011;9526;52.612;13.300;2023-02-08T02:12:42;108.50;;;48.20;;
18796;SDS011;9526;52.612;13.300;2023-02-08T02:15:09;116.67;;;47.87;;
18796;SDS011;9526;52.612;13.300;2023-02-08T02:17:33;112.97;;;49.47;;
18796;SDS011;9526;52.612;13.300;2023-02-08T02:19:59;108.83;;;48.30;;
18796;SDS011;9526;52.612;13.300;2023-02-08T02:22:46;115.87;;;49.30;;
18796;SDS011;9526;52.612;13.300;2023-02-08T02:29:24;115.73;;;48.50;;
18796;SDS011;9526;52.612;13.300;2023-02-08T02:32:34;117.90;;;49.97;;
18796;SDS011;9526;52.612;13.300;2023-02-08T02:35:18;116.20;;;50.40;;
18796;SDS011;9526;52.612;13.300;2023-02-08T02:37:52;115.20;;;50.97;;
18796;SDS011;9526;52.612;13.300;2023-02-08T02:40:24;115.10;;;49.97;;
18796;SDS011;9526;52.612;13.300;2023-02-08T02:43:00;116.33;;;49.97;;
18796;SDS011;9526;52.612;13.300;2023-02-08T02:45:53;120.03;;;51.03;;
18796;SDS011;9526;52.612;13.300;2023-02-08T02:48:25;114.13;;;50.67;;
18796;SDS011;9526;52.612;13.300;2023-02-08T02:50:55;116.03;;;50.67;;
18796;SDS011;9526;52.612;13.300;2023-02-08T02:53:26;114.23;;;49.90;;
18796;SDS011;9526;52.612;13.300;2023-02-08T02:55:57;114.23;;;49.53;;
18796;SDS011;9526;52.612;13.300;2023-02-08T02:58:27;114.73;;;50.30;;
18796;SDS011;9526;52.612;13.300;2023-02-08T03:00:53;105.63;;;48.27;;
18796;SDS011;9526;52.612;13.300;2023-02-08T03:03:19;112.37;;;49.90;;
18796;SDS011;9526;52.612;13.300;2023-02-08T03:05:48;109.27;;;48.50;;
18796;SDS011;9526;52.612;13.300;2023-02-08T03:08:21;104.43;;;47.27;;
18796;SDS011;9526;52.612;13.300;2023-02-08T03:11:12;107.70;;;46.13;;
18796;SDS011;9526;52.612;13.300;2023-02-08T03:13:44;105.80;;;46.53;;
18796;SDS011;9526;52.612;13.300;2023-02-08T03:16:28;108.50;;;48.10;;
18796;SDS011;9526;52.612;13.300;2023-02-08T03:19:06;110.03;;;47.57;;
18796;SDS011;9526;52.612;13.300;2023-02-08T03:21:37;108.00;;;47.43;;
18796;SDS011;9526;52.612;13.300;2023-02-08T03:24:08;109.63;;;47.13;;
18796;SDS011;9526;52.612;13.300;2023-02-08T03:26:46;107.63;;;47.77;;
18796;SDS011;9526;52.612;13.300;2023-02-08T03:29:18;108.43;;;45.20;;
18796;SDS011;9526;52.612;13.300;2023-02-08T03:31:52;108.40;;;45.60;;
18796;SDS011;9526;52.612;13.300;2023-02-08T03:34:22;104.03;;;44.87;;
18796;SDS011;9526;52.612;13.300;2023-02-08T03:36:52;101.43;;;44.47;;
18796;SDS011;9526;52.612;13.300;2023-02-08T03:39:20;100.27;;;43.90;;
18796;SDS011;9526;52.612;13.300;2023-02-08T03:41:48;94.40;;;42.77;;
18796;SDS011;9526;52.612;13.300;2023-02-08T03:44:17;104.87;;;44.63;;
18796;SDS011;9526;52.612;13.300;2023-02-08T03:46:46;103.33;;;43.77;;
18796;SDS011;9526;52.612;13.300;2023-02-08T03:49:17;101.77;;;42.43;;
18796;SDS011;9526;52.612;13.300;2023-02-08T03:51:45;103.33;;;43.77;;
18796;SDS011;9526;52.612;13.300;2023-02-08T03:54:11;106.00;;;46.93;;
18796;SDS011;9526;52.612;13.300;2023-02-08T03:56:40;119.97;;;47.87;;
18796;SDS011;9526;52.612;13.300;2023-02-08T03:59:10;124.20;;;49.87;;
18796;SDS011;9526;52.612;13.300;2023-02-08T04:01:40;116.07;;;49.20;;
18796;SDS011;9526;52.612;13.300;2023-02-08T04:04:08;118.97;;;49.73;;
18796;SDS011;9526;52.612;13.300;2023-02-08T04:06:34;111.10;;;46.90;;
18796;SDS011;9526;52.612;13.300;2023-02-08T04:08:58;111.13;;;46.63;;
18796;SDS011;9526;52.612;13.300;2023-02-08T04:11:21;109.87;;;45.30;;
18796;SDS011;9526;52.612;13.300;2023-02-08T04:13:45;105.80;;;43.27;;
18796;SDS011;9526;52.612;13.300;2023-02-08T04:16:09;109.20;;;43.00;;
18796;SDS011;9526;52.612;13.300;2023-02-08T04:18:34;92.57;;;39.30;;
18796;SDS011;9526;52.612;13.300;2023-02-08T04:20:57;96.97;;;39.87;;
18796;SDS011;9526;52.612;13.300;2023-02-08T04:23:23;94.73;;;39.87;;
18796;SDS011;9526;52.612;13.300;2023-02-08T04:25:46;91.23;;;39.07;;
18796;SDS011;9526;52.612;13.300;2023-02-08T04:28:10;95.90;;;39.20;;
18796;SDS011;9526;52.612;13.300;2023-02-08T04:30:34;90.77;;;38.43;;
18796;SDS011;9526;52.612;13.300;2023-02-08T04:32:58;93.67;;;38.77;;
18796;SDS011;9526;52.612;13.300;2023-02-08T04:35:22;89.53;;;38.57;;
18796;SDS011;9526;52.612;13.300;2023-02-08T04:37:45;88.60;;;38.90;;
18796;SDS011;9526;52.612;13.300;2023-02-08T04:40:11;89.27;;;38.67;;
18796;SDS011;9526;52.612;13.300;2023-02-08T04:42:35;88.67;;;37.27;;
18796;SDS011;9526;52.612;13.300;2023-02-08T04:44:58;87.30;;;38.33;;
18796;SDS011;9526;52.612;13.300;2023-02-08T04:47:22;90.17;;;37.97;;
18796;SDS011;9526;52.612;13.300;2023-02-08T04:49:46;91.57;;;36.70;;
18796;SDS011;9526;52.612;13.300;2023-02-08T04:52:10;88.20;;;35.63;;
18796;SDS011;9526;52.612;13.300;2023-02-08T04:54:33;83.93;;;35.97;;
18796;SDS011;9526;52.612;13.300;2023-02-08T04:57:02;86.87;;;36.80;;
18796;SDS011;9526;52.612;13.300;2023-02-08T04:59:26;86.97;;;35.73;;
18796;SDS011;9526;52.612;13.300;2023-02-08T05:01:50;87.20;;;37.20;;
18796;SDS011;9526;52.612;13.300;2023-02-08T05:04:14;80.00;;;35.87;;
18796;SDS011;9526;52.612;13.300;2023-02-08T05:06:37;83.67;;;35.50;;
18796;SDS011;9526;52.612;13.300;2023-02-08T05:09:02;99.00;;;35.63;;
18796;SDS011;9526;52.612;13.300;2023-02-08T05:11:28;82.93;;;35.20;;
18796;SDS011;9526;52.612;13.300;2023-02-08T05:13:53;88.17;;;36.13;;
18796;SDS011;9526;52.612;13.300;2023-02-08T05:16:17;75.87;;;34.63;;
18796;SDS011;9526;52.612;13.300;2023-02-08T05:18:41;87.87;;;35.80;;
18796;SDS011;9526;52.612;13.300;2023-02-08T05:21:05;85.43;;;35.70;;
18796;SDS011;9526;52.612;13.300;2023-02-08T05:23:29;87.30;;;34.97;;
18796;SDS011;9526;52.612;13.300;2023-02-08T05:25:53;87.03;;;37.03;;
18796;SDS011;9526;52.612;13.300;2023-02-08T05:28:17;75.33;;;33.87;;
18796;SDS011;9526;52.612;13.300;2023-02-08T05:30:43;84.47;;;34.27;;
18796;SDS011;9526;52.612;13.300;2023-02-08T05:33:07;90.40;;;37.00;;
18796;SDS011;9526;52.612;13.300;2023-02-08T05:35:31;83.37;;;34.70;;
18796;SDS011;9526;52.612;13.300;2023-02-08T05:37:55;87.37;;;35.97;;
18796;SDS011;9526;52.612;13.300;2023-02-08T05:40:18;84.10;;;35.67;;
18796;SDS011;9526;52.612;13.300;2023-02-08T05:42:42;88.87;;;36.03;;
18796;SDS011;9526;52.612;13.300;2023-02-08T05:45:06;86.43;;;36.40;;
18796;SDS011;9526;52.612;13.300;2023-02-08T05:47:32;93.57;;;37.40;;
18796;SDS011;9526;52.612;13.300;2023-02-08T05:49:55;86.50;;;37.07;;
18796;SDS011;9526;52.612;13.300;2023-02-08T05:52:19;88.03;;;35.43;;
18796;SDS011;9526;52.612;13.300;2023-02-08T05:54:43;86.37;;;35.40;;
18796;SDS011;9526;52.612;13.300;2023-02-08T05:57:06;84.90;;;36.27;;
18796;SDS011;9526;52.612;13.300;2023-02-08T05:59:30;84.27;;;35.37;;
18796;SDS011;9526;52.612;13.300;2023-02-08T06:01:54;80.93;;;34.57;;
18796;SDS011;9526;52.612;13.300;2023-02-08T06:04:19;87.80;;;35.27;;
18796;SDS011;9526;52.612;13.300;2023-02-08T06:06:43;81.67;;;34.10;;
18796;SDS011;9526;52.612;13.300;2023-02-08T06:09:07;84.13;;;35.57;;
18796;SDS011;9526;52.612;13.300;2023-02-08T06:11:30;85.60;;;35.13;;
18796;SDS011;9526;52.612;13.300;2023-02-08T06:13:54;91.47;;;37.37;;
18796;SDS011;9526;52.612;13.300;2023-02-08T06:16:18;81.23;;;33.33;;
18796;SDS011;9526;52.612;13.300;2023-02-08T06:18:43;81.47;;;35.60;;
18796;SDS011;9526;52.612;13.300;2023-02-08T06:21:08;78.57;;;33.93;;
18796;SDS011;9526;52.612;13.300;2023-02-08T06:23:32;79.60;;;33.63;;
18796;SDS011;9526;52.612;13.300;2023-02-08T06:25:56;77.97;;;33.73;;
18796;SDS011;9526;52.612;13.300;2023-02-08T06:28:20;82.17;;;34.33;;
18796;SDS011;9526;52.612;13.300;2023-02-08T06:30:44;81.37;;;33.00;;
18796;SDS011;9526;52.612;13.300;2023-02-08T06:33:10;81.47;;;33.83;;
18796;SDS011;9526;52.612;13.300;2023-02-08T06:35:36;81.70;;;34.40;;
18796;SDS011;9526;52.612;13.300;2023-02-08T06:38:01;75.80;;;32.67;;
18796;SDS011;9526;52.612;13.300;2023-02-08T06:40:25;86.20;;;34.97;;
18796;SDS011;9526;52.612;13.300;2023-02-08T06:42:49;86.50;;;35.07;;
18796;SDS011;9526;52.612;13.300;2023-02-08T06:45:12;81.17;;;33.73;;
18796;SDS011;9526;52.612;13.300;2023-02-08T06:47:36;82.70;;;34.77;;
18796;SDS011;9526;52.612;13.300;2023-02-08T06:50:00;83.80;;;33.90;;
18796;SDS011;9526;52.612;13.300;2023-02-08T06:52:24;87.43;;;33.77;;
18796;SDS011;9526;52.612;13.300;2023-02-08T06:54:49;76.07;;;32.57;;
18796;SDS011;9526;52.612;13.300;2023-02-08T06:57:13;83.20;;;32.27;;
18796;SDS011;9526;52.612;13.300;2023-02-08T06:59:37;78.83;;;34.07;;
18796;SDS011;9526;52.612;13.300;2023-02-08T07:02:00;79.10;;;34.77;;
18796;SDS011;9526;52.612;13.300;2023-02-08T07:04:25;77.40;;;33.23;;
18796;SDS011;9526;52.612;13.300;2023-02-08T07:06:49;76.10;;;33.10;;
18796;SDS011;9526;52.612;13.300;2023-02-08T07:09:12;85.37;;;33.53;;
18796;SDS011;9526;52.612;13.300;2023-02-08T07:11:38;81.17;;;34.07;;
18796;SDS011;9526;52.612;13.300;2023-02-08T07:14:01;86.67;;;33.97;;
18796;SDS011;9526;52.612;13.300;2023-02-08T07:16:25;81.30;;;33.67;;
18796;SDS011;9526;52.612;13.300;2023-02-08T07:18:49;78.13;;;33.87;;
18796;SDS011;9526;52.612;13.300;2023-02-08T07:21:13;75.40;;;32.57;;
18796;SDS011;9526;52.612;13.300;2023-02-08T07:23:37;83.83;;;33.70;;
18796;SDS011;9526;52.612;13.300;2023-02-08T07:26:02;82.63;;;34.30;;
18796;SDS011;9526;52.612;13.300;2023-02-08T07:28:30;79.17;;;33.10;;
18796;SDS011;9526;52.612;13.300;2023-02-08T07:30:54;82.63;;;34.10;;
18796;SDS011;9526;52.612;13.300;2023-02-08T07:33:18;81.47;;;34.43;;
18796;SDS011;9526;52.612;13.300;2023-02-08T07:35:43;76.87;;;32.20;;
18796;SDS011;9526;52.612;13.300;2023-02-08T07:38:06;78.50;;;33.60;;
18796;SDS011;9526;52.612;13.300;2023-02-08T07:40:30;85.73;;;32.30;;
18796;SDS011;9526;52.612;13.300;2023-02-08T07:42:54;84.63;;;32.93;;
18796;SDS011;9526;52.612;13.300;2023-02-08T07:45:31;77.20;;;31.93;;
18796;SDS011;9526;52.612;13.300;2023-02-08T07:47:55;79.40;;;33.17;;
18796;SDS011;9526;52.612;13.300;2023-02-08T07:50:19;77.87;;;30.50;;
18796;SDS011;9526;52.612;13.300;2023-02-08T07:52:43;81.77;;;33.47;;
18796;SDS011;9526;52.612;13.300;2023-02-08T07:55:07;83.77;;;32.47;;
18796;SDS011;9526;52.612;13.300;2023-02-08T07:57:32;76.17;;;30.97;;
18796;SDS011;9526;52.612;13.300;2023-02-08T07:59:55;79.30;;;30.93;;
18796;SDS011;9526;52.612;13.300;2023-02-08T08:02:21;78.20;;;30.23;;
18796;SDS011;9526;52.612;13.300;2023-02-08T08:04:44;70.10;;;29.37;;
18796;SDS011;9526;52.612;13.300;2023-02-08T08:07:08;74.93;;;29.10;;
18796;SDS011;9526;52.612;13.300;2023-02-08T08:09:32;72.00;;;30.40;;
18796;SDS011;9526;52.612;13.300;2023-02-08T08:11:55;74.67;;;29.73;;
18796;SDS011;9526;52.612;13.300;2023-02-08T08:14:19;69.47;;;31.47;;
18796;SDS011;9526;52.612;13.300;2023-02-08T08:16:43;71.13;;;29.57;;
18796;SDS011;9526;52.612;13.300;2023-02-08T08:19:08;60.57;;;25.57;;
18796;SDS011;9526;52.612;13.300;2023-02-08T08:21:32;73.23;;;28.70;;
18796;SDS011;9526;52.612;13.300;2023-02-08T08:23:59;73.63;;;27.40;;
18796;SDS011;9526;52.612;13.300;2023-02-08T08:26:22;70.03;;;28.97;;
18796;SDS011;9526;52.612;13.300;2023-02-08T08:28:46;69.67;;;27.43;;
18796;SDS011;9526;52.612;13.300;2023-02-08T08:31:10;66.77;;;27.80;;
18796;SDS011;9526;52.612;13.300;2023-02-08T08:33:36;59.83;;;26.30;;
18796;SDS011;9526;52.612;13.300;2023-02-08T08:36:01;62.03;;;27.70;;
18796;SDS011;9526;52.612;13.300;2023-02-08T08:38:25;63.33;;;27.70;;
18796;SDS011;9526;52.612;13.300;2023-02-08T08:40:49;62.07;;;27.20;;
18796;SDS011;9526;52.612;13.300;2023-02-08T08:43:12;61.10;;;28.40;;
18796;SDS011;9526;52.612;13.300;2023-02-08T08:45:36;70.00;;;28.33;;
18796;SDS011;9526;52.612;13.300;2023-02-08T08:48:00;64.73;;;28.50;;
18796;SDS011;9526;52.612;13.300;2023-02-08T08:50:25;58.93;;;24.00;;
18796;SDS011;9526;52.612;13.300;2023-02-08T08:52:50;61.40;;;26.83;;
18796;SDS011;9526;52.612;13.300;2023-02-08T08:55:14;56.60;;;24.13;;
18796;SDS011;9526;52.612;13.300;2023-02-08T08:57:38;66.23;;;26.40;;
18796;SDS011;9526;52.612;13.300;2023-02-08T09:00:02;64.90;;;28.07;;
18796;SDS011;9526;52.612;13.300;2023-02-08T09:02:26;63.70;;;27.90;;
18796;SDS011;9526;52.612;13.300;2023-02-08T09:04:50;61.40;;;25.17;;
18796;SDS011;9526;52.612;13.300;2023-02-08T09:07:13;60.53;;;28.27;;
18796;SDS011;9526;52.612;13.300;2023-02-08T09:09:39;64.43;;;29.40;;
18796;SDS011;9526;52.612;13.300;2023-02-08T09:12:02;60.23;;;24.77;;
18796;SDS011;9526;52.612;13.300;2023-02-08T09:14:27;55.33;;;25.40;;
18796;SDS011;9526;52.612;13.300;2023-02-08T09:16:50;58.53;;;26.20;;
18796;SDS011;9526;52.612;13.300;2023-02-08T09:19:14;68.83;;;29.17;;
18796;SDS011;9526;52.612;13.300;2023-02-08T09:21:38;65.00;;;27.33;;
18796;SDS011;9526;52.612;13.300;2023-02-08T09:24:03;60.23;;;25.30;;
18796;SDS011;9526;52.612;13.300;2023-02-08T09:26:29;52.17;;;21.93;;
18796;SDS011;9526;52.612;13.300;2023-02-08T09:28:52;62.83;;;29.50;;
18796;SDS011;9526;52.612;13.300;2023-02-08T09:31:18;60.30;;;27.53;;
18796;SDS011;9526;52.612;13.300;2023-02-08T09:33:46;63.27;;;29.83;;
18796;SDS011;9526;52.612;13.300;2023-02-08T09:36:10;63.00;;;30.30;;
18796;SDS011;9526;52.612;13.300;2023-02-08T09:38:34;60.90;;;28.20;;
18796;SDS011;9526;52.612;13.300;2023-02-08T09:41:00;53.67;;;27.53;;
18796;SDS011;9526;52.612;13.300;2023-02-08T09:43:38;64.33;;;28.03;;
18796;SDS011;9526;52.612;13.300;2023-02-08T09:46:10;58.33;;;27.77;;
18796;SDS011;9526;52.612;13.300;2023-02-08T09:48:39;61.53;;;28.77;;
18796;SDS011;9526;52.612;13.300;2023-02-08T09:51:04;60.27;;;29.60;;
18796;SDS011;9526;52.612;13.300;2023-02-08T09:53:45;58.27;;;30.37;;
18796;SDS011;9526;52.612;13.300;2023-02-08T09:56:14;55.37;;;26.57;;
18796;SDS011;9526;52.612;13.300;2023-02-08T09:58:43;59.77;;;30.40;;
18796;SDS011;9526;52.612;13.300;2023-02-08T10:01:11;57.27;;;30.10;;
18796;SDS011;9526;52.612;13.300;2023-02-08T10:03:42;60.70;;;30.47;;
18796;SDS011;9526;52.612;13.300;2023-02-08T10:06:08;43.20;;;20.20;;
18796;SDS011;9526;52.612;13.300;2023-02-08T10:08:35;60.43;;;30.50;;
18796;SDS011;9526;52.612;13.300;2023-02-08T10:11:03;59.37;;;30.83;;
18796;SDS011;9526;52.612;13.300;2023-02-08T10:13:46;61.50;;;30.90;;
18796;SDS011;9526;52.612;13.300;2023-02-08T10:16:34;56.87;;;27.80;;
18796;SDS011;9526;52.612;13.300;2023-02-08T10:19:19;62.80;;;31.00;;
18796;SDS011;9526;52.612;13.300;2023-02-08T10:22:03;53.00;;;27.67;;
18796;SDS011;9526;52.612;13.300;2023-02-08T10:24:48;54.65;;;27.17;;
18796;SDS011;9526;52.612;13.300;2023-02-08T10:27:34;57.63;;;27.75;;
18796;SDS011;9526;52.612;13.300;2023-02-08T10:30:13;55.53;;;28.95;;
18796;SDS011;9526;52.612;13.300;2023-02-08T10:32:49;56.27;;;29.03;;
18796;SDS011;9526;52.612;13.300;2023-02-08T10:35:24;56.67;;;30.20;;
18796;SDS011;9526;52.612;13.300;2023-02-08T10:37:57;58.00;;;29.58;;
18796;SDS011;9526;52.612;13.300;2023-02-08T10:40:23;58.20;;;30.33;;
18796;SDS011;9526;52.612;13.300;2023-02-08T10:42:56;56.92;;;29.15;;
18796;SDS011;9526;52.612;13.300;2023-02-08T10:45:33;50.43;;;26.60;;
18796;SDS011;9526;52.612;13.300;2023-02-08T10:48:07;60.40;;;29.70;;
18796;SDS011;9526;52.612;13.300;2023-02-08T10:50:41;57.17;;;28.97;;
18796;SDS011;9526;52.612;13.300;2023-02-08T10:53:08;53.43;;;29.07;;
18796;SDS011;9526;52.612;13.300;2023-02-08T10:55:37;57.87;;;27.47;;
18796;SDS011;9526;52.612;13.300;2023-02-08T10:58:05;54.60;;;29.53;;
18796;SDS011;9526;52.612;13.300;2023-02-08T11:00:30;55.67;;;28.43;;
18796;SDS011;9526;52.612;13.300;2023-02-08T11:02:59;50.13;;;25.37;;
18796;SDS011;9526;52.612;13.300;2023-02-08T11:05:37;58.60;;;29.37;;
18796;SDS011;9526;52.612;13.300;2023-02-08T11:08:05;53.47;;;27.73;;
18796;SDS011;9526;52.612;13.300;2023-02-08T11:10:30;61.50;;;29.83;;
18796;SDS011;9526;52.612;13.300;2023-02-08T11:12:56;59.00;;;29.00;;
18796;SDS011;9526;52.612;13.300;2023-02-08T11:15:21;56.80;;;28.87;;
18796;SDS011;9526;52.612;13.300;2023-02-08T11:17:52;51.73;;;24.70;;
18796;SDS011;9526;52.612;13.300;2023-02-08T11:20:20;54.77;;;28.70;;
18796;SDS011;9526;52.612;13.300;2023-02-08T11:22:49;58.63;;;28.17;;
18796;SDS011;9526;52.612;13.300;2023-02-08T11:25:29;56.57;;;28.40;;
18796;SDS011;9526;52.612;13.300;2023-02-08T11:27:56;53.20;;;27.57;;
18796;SDS011;9526;52.612;13.300;2023-02-08T11:30:22;59.83;;;29.80;;
18796;SDS011;9526;52.612;13.300;2023-02-08T11:32:47;53.23;;;24.37;;
18796;SDS011;9526;52.612;13.300;2023-02-08T11:35:29;52.73;;;26.80;;
18796;SDS011;9526;52.612;13.300;2023-02-08T11:37:55;60.40;;;28.70;;
18796;SDS011;9526;52.612;13.300;2023-02-08T11:40:21;58.20;;;28.77;;
18796;SDS011;9526;52.612;13.300;2023-02-08T11:42:50;61.40;;;28.53;;
18796;SDS011;9526;52.612;13.300;2023-02-08T11:45:18;52.50;;;27.17;;
18796;SDS011;9526;52.612;13.300;2023-02-08T11:47:45;58.93;;;28.50;;
18796;SDS011;9526;52.612;13.300;2023-02-08T11:50:16;46.93;;;20.40;;
18796;SDS011;9526;52.612;13.300;2023-02-08T11:52:50;62.73;;;29.03;;
18796;SDS011;9526;52.612;13.300;2023-02-08T11:55:21;62.13;;;28.37;;
18796;SDS011;9526;52.612;13.300;2023-02-08T11:57:50;45.73;;;21.30;;
18796;SDS011;9526;52.612;13.300;2023-02-08T12:00:17;60.80;;;28.90;;
18796;SDS011;9526;52.612;13.300;2023-02-08T12:02:43;52.23;;;23.53;;
18796;SDS011;9526;52.612;13.300;2023-02-08T12:05:09;51.30;;;21.57;;
18796;SDS011;9526;52.612;13.300;2023-02-08T12:07:39;59.90;;;28.83;;
18796;SDS011;9526;52.612;13.300;2023-02-08T12:10:28;62.37;;;28.80;;
18796;SDS011;9526;52.612;13.300;2023-02-08T12:13:29;60.27;;;28.33;;
18796;SDS011;9526;52.612;13.300;2023-02-08T12:16:15;61.73;;;26.90;;
18796;SDS011;9526;52.612;13.300;2023-02-08T12:19:01;58.33;;;27.37;;
18796;SDS011;9526;52.612;13.300;2023-02-08T12:21:44;65.37;;;29.43;;
18796;SDS011;9526;52.612;13.300;2023-02-08T12:24:15;55.90;;;23.67;;
18796;SDS011;9526;52.612;13.300;2023-02-08T12:26:48;59.53;;;29.00;;
18796;SDS011;9526;52.612;13.300;2023-02-08T12:29:39;59.13;;;28.30;;
18796;SDS011;9526;52.612;13.300;2023-02-08T12:32:18;60.67;;;28.63;;
18796;SDS011;9526;52.612;13.300;2023-02-08T12:35:03;60.93;;;28.17;;
18796;SDS011;9526;52.612;13.300;2023-02-08T12:38:06;55.93;;;25.87;;
18796;SDS011;9526;52.612;13.300;2023-02-08T12:40:58;55.77;;;26.67;;
18796;SDS011;9526;52.612;13.300;2023-02-08T12:43:35;60.13;;;26.43;;
18796;SDS011;9526;52.612;13.300;2023-02-08T12:46:19;56.00;;;26.23;;
18796;SDS011;9526;52.612;13.300;2023-02-08T12:49:01;56.33;;;25.50;;
18796;SDS011;9526;52.612;13.300;2023-02-08T12:51:48;50.03;;;21.40;;
18796;SDS011;9526;52.612;13.300;2023-02-08T12:54:26;58.47;;;28.37;;
18796;SDS011;9526;52.612;13.300;2023-02-08T12:56:56;54.70;;;25.00;;
18796;SDS011;9526;52.612;13.300;2023-02-08T12:59:24;56.97;;;27.87;;
18796;SDS011;9526;52.612;13.300;2023-02-08T13:01:54;53.90;;;27.13;;
18796;SDS011;9526;52.612;13.300;2023-02-08T13:04:25;57.30;;;25.43;;
18796;SDS011;9526;52.612;13.300;2023-02-08T13:06:55;65.40;;;26.97;;
18796;SDS011;9526;52.612;13.300;2023-02-08T13:09:26;62.63;;;28.57;;
18796;SDS011;9526;52.612;13.300;2023-02-08T13:12:05;64.17;;;29.63;;
18796;SDS011;9526;52.612;13.300;2023-02-08T13:14:37;58.27;;;27.73;;
18796;SDS011;9526;52.612;13.300;2023-02-08T13:17:08;56.17;;;26.10;;
18796;SDS011;9526;52.612;13.300;2023-02-08T13:19:41;58.70;;;26.83;;
18796;SDS011;9526;52.612;13.300;2023-02-08T13:22:21;52.33;;;21.57;;
18796;SDS011;9526;52.612;13.300;2023-02-08T13:24:45;63.33;;;29.63;;
18796;SDS011;9526;52.612;13.300;2023-02-08T13:27:23;64.80;;;28.80;;
18796;SDS011;9526;52.612;13.300;2023-02-08T13:29:47;64.27;;;29.43;;
18796;SDS011;9526;52.612;13.300;2023-02-08T13:32:14;61.30;;;27.67;;
18796;SDS011;9526;52.612;13.300;2023-02-08T13:34:43;62.33;;;29.90;;
18796;SDS011;9526;52.612;13.300;2023-02-08T13:37:18;62.00;;;30.13;;
18796;SDS011;9526;52.612;13.300;2023-02-08T13:39:48;55.53;;;25.77;;
18796;SDS011;9526;52.612;13.300;2023-02-08T13:42:21;62.63;;;30.50;;
18796;SDS011;9526;52.612;13.300;2023-02-08T13:44:55;64.90;;;29.73;;
18796;SDS011;9526;52.612;13.300;2023-02-08T13:47:24;68.63;;;30.73;;
18796;SDS011;9526;52.612;13.300;2023-02-08T13:49:52;59.30;;;28.93;;
18796;SDS011;9526;52.612;13.300;2023-02-08T14:01:04;66.30;;;29.97;;
18796;SDS011;9526;52.612;13.300;2023-02-08T14:03:37;63.23;;;29.47;;
18796;SDS011;9526;52.612;13.300;2023-02-08T14:06:01;57.77;;;29.63;;
18796;SDS011;9526;52.612;13.300;2023-02-08T14:08:28;59.97;;;27.53;;
18796;SDS011;9526;52.612;13.300;2023-02-08T14:11:01;66.63;;;28.97;;
18796;SDS011;9526;52.612;13.300;2023-02-08T14:13:36;40.97;;;19.07;;
18796;SDS011;9526;52.612;13.300;2023-02-08T14:16:21;60.50;;;27.90;;
18796;SDS011;9526;52.612;13.300;2023-02-08T14:18:51;46.33;;;19.17;;
18796;SDS011;9526;52.612;13.300;2023-02-08T14:21:21;57.03;;;28.43;;
18796;SDS011;9526;52.612;13.300;2023-02-08T14:24:00;57.03;;;25.53;;
18796;SDS011;9526;52.612;13.300;2023-02-08T14:26:27;58.97;;;27.47;;
18796;SDS011;9526;52.612;13.300;2023-02-08T14:28:53;58.13;;;30.00;;
18796;SDS011;9526;52.612;13.300;2023-02-08T14:31:19;61.07;;;28.73;;
18796;SDS011;9526;52.612;13.300;2023-02-08T14:33:49;58.43;;;28.10;;
18796;SDS011;9526;52.612;13.300;2023-02-08T14:36:21;61.87;;;27.77;;
18796;SDS011;9526;52.612;13.300;2023-02-08T14:38:52;59.37;;;27.63;;